Time;durP1;ratioP1;P1;durP2;ratioP2;P2;SDS_P1;SDS_P2;PMS_P1;PMS_P2;Temp;Humidity;BMP_temperature;BMP_pressure;BME280_temperature;BME280_humidity;BME280_pressure;Samples;Min_cycle;Max_cycle;Signal;HPM_P1;HPM_P2
2022/06/29 00:01:57;;;;;;;3.80;3.13;;;17.40;99.90;;;;;;5069113;28;20708;-58
2022/06/29 00:04:23;;;;;;;3.97;3.67;;;17.40;99.90;;;;;;5068781;28;20693;-58
2022/06/29 00:06:48;;;;;;;4.03;3.43;;;17.40;99.90;;;;;;5050133;28;20344;-58
2022/06/29 00:09:14;;;;;;;6.43;4.00;;;17.40;99.90;;;;;;5048523;28;20215;-58
2022/06/29 00:11:40;;;;;;;4.00;3.60;;;17.40;99.90;;;;;;5047630;28;20581;-58
2022/06/29 00:14:05;;;;;;;4.00;3.70;;;17.30;99.90;;;;;;5049056;28;20804;-60
2022/06/29 00:16:31;;;;;;;3.93;3.50;;;17.30;99.90;;;;;;5065578;28;20213;-58
2022/06/29 00:18:57;;;;;;;4.80;3.87;;;17.20;99.90;;;;;;5052491;28;20640;-58
2022/06/29 00:21:22;;;;;;;4.27;3.77;;;17.10;99.90;;;;;;5048181;28;20213;-57
2022/06/29 00:23:48;;;;;;;3.47;3.23;;;17.10;99.90;;;;;;5060029;28;20718;-58
2022/06/29 00:26:13;;;;;;;5.37;3.70;;;17.20;99.90;;;;;;5064273;28;20248;-57
2022/06/29 00:28:39;;;;;;;4.00;3.50;;;17.10;99.90;;;;;;5064131;28;20650;-57
2022/06/29 00:31:05;;;;;;;3.80;3.50;;;17.10;99.90;;;;;;5056495;28;20373;-56
2022/06/29 00:33:30;;;;;;;5.50;3.73;;;17.10;99.90;;;;;;5063455;28;20190;-58
2022/06/29 00:35:56;;;;;;;7.37;3.73;;;17.10;99.90;;;;;;5067125;28;20213;-57
2022/06/29 00:38:21;;;;;;;3.60;3.30;;;17.10;99.90;;;;;;5049892;28;20190;-57
2022/06/29 00:40:47;;;;;;;4.17;3.10;;;17.00;99.90;;;;;;5054322;28;20185;-58
2022/06/29 00:43:13;;;;;;;4.13;3.50;;;17.00;99.90;;;;;;5055653;28;20182;-57
2022/06/29 00:45:38;;;;;;;4.30;3.60;;;17.00;99.90;;;;;;5049162;28;20545;-56
2022/06/29 00:48:04;;;;;;;4.37;3.63;;;17.00;99.90;;;;;;5047550;28;20633;-57
2022/06/29 00:50:32;;;;;;;3.77;3.40;;;17.10;99.90;;;;;;5048721;28;20248;-58
2022/06/29 00:53:05;;;;;;;3.40;3.10;;;17.00;99.90;;;;;;5059810;28;20443;-58
2022/06/29 00:55:33;;;;;;;3.57;3.27;;;16.90;99.90;;;;;;5062274;28;20502;-53
2022/06/29 00:58:03;;;;;;;4.10;2.93;;;17.00;99.90;;;;;;5067607;28;20771;-53
2022/06/29 01:00:29;;;;;;;3.30;3.10;;;16.90;99.90;;;;;;5065815;28;20922;-52
2022/06/29 01:02:57;;;;;;;3.40;3.10;;;16.90;99.90;;;;;;5059833;28;20440;-52
2022/06/29 01:05:22;;;;;;;3.23;3.03;;;17.00;99.90;;;;;;5055264;28;20196;-53
2022/06/29 01:07:49;;;;;;;3.20;3.00;;;17.10;99.90;;;;;;5058197;28;20803;-59
2022/06/29 01:10:15;;;;;;;4.10;3.37;;;17.00;99.90;;;;;;5054155;28;20559;-52
2022/06/29 01:12:40;;;;;;;3.77;3.30;;;16.90;99.90;;;;;;5054060;28;20425;-54
2022/06/29 01:15:07;;;;;;;4.70;3.37;;;16.90;99.90;;;;;;5048601;28;20603;-57
2022/06/29 01:17:32;;;;;;;3.87;3.37;;;16.90;99.90;;;;;;5036379;28;20247;-57
2022/06/29 01:19:58;;;;;;;3.40;3.10;;;16.80;99.90;;;;;;5052361;28;20448;-57
2022/06/29 01:22:26;;;;;;;5.00;3.07;;;16.70;99.90;;;;;;5051281;28;20206;-56
2022/06/29 01:24:51;;;;;;;3.77;3.30;;;16.80;99.90;;;;;;5051230;28;20190;-59
2022/06/29 01:27:19;;;;;;;3.87;3.03;;;16.70;99.90;;;;;;5049292;28;20444;-57
2022/06/29 01:29:45;;;;;;;3.73;3.07;;;16.70;99.90;;;;;;5039075;28;20186;-58
2022/06/29 01:32:11;;;;;;;3.70;3.40;;;16.60;99.90;;;;;;5043399;28;20444;-58
2022/06/29 01:34:37;;;;;;;3.83;3.00;;;16.60;99.90;;;;;;5037082;28;20433;-57
2022/06/29 01:37:04;;;;;;;4.03;3.27;;;16.70;99.90;;;;;;5054209;28;20528;-58
2022/06/29 01:39:30;;;;;;;3.17;2.97;;;16.80;99.90;;;;;;5050589;28;20442;-57
2022/06/29 01:41:57;;;;;;;3.63;3.00;;;16.80;99.90;;;;;;5044275;28;20449;-58
2022/06/29 01:44:23;;;;;;;3.60;3.33;;;16.80;99.90;;;;;;5034430;28;21037;-62
2022/06/29 01:46:48;;;;;;;3.33;3.13;;;16.80;99.90;;;;;;5052193;28;20451;-58
2022/06/29 01:49:14;;;;;;;4.70;3.00;;;16.80;99.90;;;;;;5045484;28;20819;-58
2022/06/29 01:51:40;;;;;;;2.90;2.70;;;16.70;99.90;;;;;;5039789;28;20224;-58
2022/06/29 01:54:07;;;;;;;4.60;2.93;;;16.60;99.90;;;;;;5033497;28;20410;-58
2022/06/29 01:56:32;;;;;;;3.53;3.23;;;16.70;99.90;;;;;;5038552;28;20242;-57
2022/06/29 01:58:58;;;;;;;3.93;3.53;;;16.50;99.90;;;;;;5051562;28;20786;-58
2022/06/29 02:01:24;;;;;;;3.30;3.10;;;16.50;99.90;;;;;;5047771;28;20514;-58
2022/06/29 02:03:51;;;;;;;5.23;3.50;;;16.50;99.90;;;;;;5051727;28;20194;-57
2022/06/29 02:06:18;;;;;;;3.60;3.30;;;16.50;99.90;;;;;;5050360;28;20198;-57
2022/06/29 02:08:44;;;;;;;3.30;3.10;;;16.50;99.90;;;;;;5033770;28;20422;-58
2022/06/29 02:11:10;;;;;;;2.97;2.80;;;16.60;99.90;;;;;;5044302;28;20451;-58
2022/06/29 02:13:36;;;;;;;6.30;2.70;;;16.60;99.90;;;;;;5043120;28;20436;-56
2022/06/29 02:16:01;;;;;;;3.60;2.80;;;16.60;99.90;;;;;;5050153;28;20221;-58
2022/06/29 02:18:27;;;;;;;3.00;2.80;;;16.60;99.90;;;;;;5045253;28;20195;-57
2022/06/29 02:20:53;;;;;;;3.40;3.10;;;16.60;99.90;;;;;;5038955;28;20186;-57
2022/06/29 02:23:20;;;;;;;5.73;3.47;;;16.60;99.90;;;;;;5052392;28;20194;-57
2022/06/29 02:25:46;;;;;;;3.47;3.17;;;16.50;99.90;;;;;;5050666;28;20624;-57
2022/06/29 02:28:12;;;;;;;2.83;2.63;;;16.40;99.90;;;;;;5051452;28;20778;-57
2022/06/29 02:36:06;;;;;;;3.50;3.20;;;16.30;99.90;;;;;;5033305;28;20603;-57
2022/06/29 02:38:33;;;;;;;2.90;2.70;;;16.30;99.90;;;;;;5050092;28;20433;-57
2022/06/29 02:40:59;;;;;;;3.23;2.90;;;16.30;99.90;;;;;;5050515;28;20456;-57
2022/06/29 02:43:25;;;;;;;2.80;2.60;;;16.30;99.90;;;;;;5050331;28;20798;-57
2022/06/29 02:45:51;;;;;;;3.10;2.80;;;16.30;99.90;;;;;;5041951;28;20199;-58
2022/06/29 02:48:17;;;;;;;2.73;2.53;;;16.30;99.90;;;;;;5044225;28;20440;-57
2022/06/29 02:50:42;;;;;;;3.20;3.00;;;16.20;99.90;;;;;;5048476;28;20194;-57
2022/06/29 02:53:08;;;;;;;4.40;2.97;;;16.20;99.90;;;;;;5032025;28;20208;-57
2022/06/29 02:55:33;;;;;;;7.00;2.60;;;16.20;99.90;;;;;;5032897;28;20247;-57
2022/06/29 02:57:59;;;;;;;2.83;2.63;;;16.20;99.90;;;;;;5051079;28;20961;-57
2022/06/29 03:00:25;;;;;;;3.63;3.17;;;16.20;99.90;;;;;;5049258;28;20178;-58
2022/06/29 03:02:50;;;;;;;3.23;2.60;;;16.30;99.90;;;;;;5039365;28;20187;-56
2022/06/29 03:05:16;;;;;;;3.50;2.53;;;16.30;99.90;;;;;;5033971;28;20190;-58
2022/06/29 03:07:41;;;;;;;3.23;2.90;;;16.30;99.90;;;;;;5042053;28;20221;-57
2022/06/29 03:10:08;;;;;;;3.30;2.80;;;16.30;99.90;;;;;;5036374;28;20190;-57
2022/06/29 03:12:33;;;;;;;2.80;2.60;;;16.30;99.90;;;;;;5036804;28;20198;-58
2022/06/29 03:14:59;;;;;;;2.50;2.30;;;16.30;99.90;;;;;;5032259;28;20850;-58
2022/06/29 03:17:25;;;;;;;2.80;2.60;;;16.40;99.90;;;;;;5050415;28;20198;-57
2022/06/29 03:19:50;;;;;;;2.60;2.40;;;16.40;99.90;;;;;;5049912;28;20640;-58
2022/06/29 03:22:16;;;;;;;3.90;2.90;;;16.60;99.90;;;;;;5042467;28;20190;-57
2022/06/29 03:24:41;;;;;;;2.60;2.40;;;16.70;99.90;;;;;;5032359;28;20286;-57
2022/06/29 03:27:07;;;;;;;2.97;2.70;;;16.80;99.90;;;;;;5031645;28;20172;-57
2022/06/29 03:29:33;;;;;;;3.47;2.90;;;16.80;99.90;;;;;;5035925;28;20191;-58
2022/06/29 03:31:58;;;;;;;4.80;2.83;;;16.80;99.90;;;;;;5044631;28;20194;-57
2022/06/29 03:34:24;;;;;;;2.67;2.47;;;16.70;99.90;;;;;;5040304;28;20182;-58
2022/06/29 03:36:50;;;;;;;2.87;2.67;;;16.70;99.90;;;;;;5050145;28;20285;-57
2022/06/29 03:39:15;;;;;;;2.53;2.33;;;16.70;99.90;;;;;;5048657;28;20187;-58
2022/06/29 03:41:41;;;;;;;3.07;2.60;;;16.70;99.90;;;;;;5047358;28;20185;-58
2022/06/29 03:44:06;;;;;;;4.53;3.23;;;16.70;99.90;;;;;;5048980;28;20194;-62
2022/06/29 03:46:32;;;;;;;3.93;2.43;;;16.80;99.90;;;;;;5050083;28;20281;-58
2022/06/29 03:48:58;;;;;;;3.40;2.77;;;16.80;99.90;;;;;;5048730;28;20677;-57
2022/06/29 03:51:23;;;;;;;3.07;2.60;;;16.70;99.90;;;;;;5039622;28;20195;-57
2022/06/29 03:53:49;;;;;;;4.67;3.00;;;16.80;99.90;;;;;;5033408;28;20207;-56
2022/06/29 03:56:15;;;;;;;4.30;2.70;;;16.80;99.90;;;;;;5032740;28;20567;-57
2022/06/29 03:58:41;;;;;;;2.70;2.50;;;16.80;99.90;;;;;;5050279;28;20650;-57
2022/06/29 04:01:06;;;;;;;3.50;2.70;;;16.90;99.90;;;;;;5047563;28;20200;-57
2022/06/29 04:03:32;;;;;;;3.67;2.80;;;16.90;99.90;;;;;;5050290;28;20178;-62
2022/06/29 04:05:57;;;;;;;4.10;2.90;;;16.90;99.90;;;;;;5049488;28;20298;-57
2022/06/29 04:08:23;;;;;;;3.73;2.80;;;17.00;99.90;;;;;;5035539;28;20191;-57
2022/06/29 04:10:49;;;;;;;3.10;2.80;;;17.00;99.90;;;;;;5048850;28;20285;-57
2022/06/29 04:13:14;;;;;;;2.37;2.20;;;17.10;99.90;;;;;;5048869;28;20194;-60
2022/06/29 04:15:41;;;;;;;3.20;2.90;;;17.10;99.90;;;;;;5048887;28;20207;-57
2022/06/29 04:18:06;;;;;;;5.47;2.50;;;17.10;99.90;;;;;;5041246;28;20183;-58
2022/06/29 04:23:16;;;;;;;2.47;2.27;;;17.20;99.90;;;;;;5048563;28;20196;-58
2022/06/29 04:25:42;;;;;;;2.77;2.47;;;17.20;99.90;;;;;;5049471;28;20444;-57
2022/06/29 04:28:07;;;;;;;2.80;2.47;;;17.30;99.90;;;;;;5048648;28;20210;-57
2022/06/29 04:30:33;;;;;;;2.60;2.40;;;17.40;99.90;;;;;;5050047;28;20201;-58
2022/06/29 04:32:59;;;;;;;2.90;2.60;;;17.40;99.90;;;;;;5039936;28;20195;-57
2022/06/29 04:35:25;;;;;;;2.60;2.40;;;17.40;99.90;;;;;;5050619;28;20468;-58
2022/06/29 04:37:50;;;;;;;3.30;2.63;;;17.40;99.90;;;;;;5047751;28;20198;-57
2022/06/29 04:40:16;;;;;;;2.40;2.20;;;17.40;99.90;;;;;;5044217;28;20186;-57
2022/06/29 04:42:42;;;;;;;8.80;2.70;;;17.50;99.90;;;;;;5052587;28;20626;-57
2022/06/29 04:46:19;;;;;;;3.70;2.40;;;17.60;99.90;;;;;;5039394;28;20198;-57
2022/06/29 04:47:53;;;;;;;4.03;2.23;;;17.60;99.90;;;;;;5035059;28;20187;-57
2022/06/29 04:50:19;;;;;;;5.47;2.40;;;17.70;99.90;;;;;;5044327;28;20798;-58
2022/06/29 04:52:44;;;;;;;3.00;2.63;;;17.80;99.90;;;;;;5041884;28;20291;-57
2022/06/29 04:55:10;;;;;;;3.00;2.50;;;17.90;99.90;;;;;;5049736;28;20818;-57
2022/06/29 04:57:36;;;;;;;3.13;2.30;;;17.90;99.90;;;;;;5041918;28;20187;-57
2022/06/29 05:00:02;;;;;;;2.57;2.20;;;17.90;99.90;;;;;;5047689;28;20194;-57
2022/06/29 05:02:28;;;;;;;2.20;2.10;;;18.00;99.90;;;;;;5044927;28;20243;-57
2022/06/29 05:04:53;;;;;;;2.20;2.00;;;18.10;99.90;;;;;;5034290;28;20512;-57
2022/06/29 05:07:19;;;;;;;3.73;2.30;;;18.20;99.90;;;;;;5051724;28;20209;-58
2022/06/29 05:09:45;;;;;;;2.90;2.17;;;18.20;99.90;;;;;;5034474;28;20688;-58
2022/06/29 05:12:11;;;;;;;2.97;2.50;;;18.40;99.90;;;;;;5047336;28;20183;-57
2022/06/29 05:14:37;;;;;;;3.10;2.10;;;18.50;99.90;;;;;;5053471;28;20833;-57
2022/06/29 05:17:02;;;;;;;2.63;2.40;;;18.70;99.90;;;;;;5053603;28;20206;-57
2022/06/29 05:19:28;;;;;;;3.20;2.50;;;18.90;99.90;;;;;;5052877;28;20183;-59
2022/06/29 05:21:54;;;;;;;3.03;2.30;;;19.00;99.90;;;;;;5038563;28;20639;-58
2022/06/29 05:24:19;;;;;;;2.43;2.23;;;19.10;99.90;;;;;;5050822;28;20197;-57
2022/06/29 05:26:45;;;;;;;2.37;2.17;;;19.10;99.90;;;;;;5040826;28;20305;-58
2022/06/29 05:29:10;;;;;;;2.23;2.00;;;19.10;99.90;;;;;;5038587;28;20644;-58
2022/06/29 05:31:36;;;;;;;2.30;2.10;;;19.20;99.90;;;;;;5045179;28;20190;-58
2022/06/29 05:34:01;;;;;;;5.07;3.23;;;19.30;99.90;;;;;;5050841;28;20222;-59
2022/06/29 05:36:27;;;;;;;3.33;2.17;;;19.40;99.90;;;;;;5052473;28;20225;-58
2022/06/29 05:38:53;;;;;;;2.10;1.80;;;19.50;99.90;;;;;;5053268;28;20619;-58
2022/06/29 05:41:18;;;;;;;3.67;2.17;;;19.70;99.90;;;;;;5049100;28;20449;-59
2022/06/29 05:43:49;;;;;;;2.93;1.90;;;19.90;99.90;;;;;;5052107;28;20190;-58
2022/06/29 05:46:15;;;;;;;5.80;2.10;;;20.10;99.90;;;;;;5053085;28;20233;-58
2022/06/29 05:48:41;;;;;;;3.00;2.10;;;20.30;99.90;;;;;;5053200;28;20424;-62
2022/06/29 05:51:06;;;;;;;3.30;2.20;;;20.40;99.90;;;;;;5049842;28;20194;-58
2022/06/29 05:53:32;;;;;;;2.90;2.00;;;20.60;99.90;;;;;;5037181;28;20214;-58
2022/06/29 05:55:57;;;;;;;7.30;2.40;;;20.70;99.90;;;;;;5053001;28;20230;-58
2022/06/29 05:58:23;;;;;;;4.73;2.20;;;20.80;99.90;;;;;;5052280;28;20182;-59
2022/06/29 06:00:49;;;;;;;2.30;1.97;;;21.10;99.90;;;;;;5053744;28;20175;-65
2022/06/29 06:03:15;;;;;;;2.40;1.83;;;21.30;99.90;;;;;;5049082;28;20228;-58
2022/06/29 06:05:41;;;;;;;3.47;2.00;;;21.40;99.90;;;;;;5033689;28;20194;-60
2022/06/29 06:08:07;;;;;;;3.77;2.00;;;21.50;99.90;;;;;;5033806;28;20414;-58
2022/06/29 06:10:33;;;;;;;3.10;2.00;;;21.60;99.90;;;;;;5033026;28;20217;-58
2022/06/29 06:12:58;;;;;;;6.33;2.20;;;21.80;99.90;;;;;;5042534;28;20735;-59
2022/06/29 06:15:24;;;;;;;3.13;2.27;;;22.00;99.90;;;;;;5050808;28;20201;-58
2022/06/29 06:17:49;;;;;;;4.60;2.03;;;22.20;99.90;;;;;;5052705;28;20648;-60
2022/06/29 06:20:15;;;;;;;2.77;2.17;;;22.40;99.90;;;;;;5048616;28;20193;-59
2022/06/29 06:22:41;;;;;;;3.00;1.90;;;22.60;99.90;;;;;;5051378;28;20275;-59
2022/06/29 06:25:06;;;;;;;2.30;1.80;;;22.70;99.90;;;;;;5050817;28;20285;-58
2022/06/29 06:27:32;;;;;;;6.33;2.10;;;22.70;99.90;;;;;;5052507;28;20178;-58
2022/06/29 06:29:58;;;;;;;2.50;2.03;;;22.80;99.90;;;;;;5050940;28;20413;-58
2022/06/29 06:32:23;;;;;;;3.50;1.90;;;22.90;99.90;;;;;;5052819;28;20194;-58
2022/06/29 06:34:49;;;;;;;3.10;2.20;;;23.20;99.90;;;;;;5049462;28;20229;-60
2022/06/29 06:37:14;;;;;;;4.17;2.17;;;23.50;99.90;;;;;;5048884;28;20264;-58
2022/06/29 06:41:21;;;;;;;4.03;2.43;;;23.60;99.90;;;;;;5047237;28;20194;-58
2022/06/29 06:42:27;;;;;;;3.83;2.00;;;23.70;99.90;;;;;;5035757;28;20891;-58
2022/06/29 06:44:53;;;;;;;3.13;2.03;;;23.80;99.90;;;;;;5043205;28;20488;-59
2022/06/29 06:47:18;;;;;;;3.37;2.37;;;23.70;99.90;;;;;;5051454;28;20484;-59
2022/06/29 06:49:44;;;;;;;7.23;2.20;;;23.90;99.90;;;;;;5038718;28;20719;-59
2022/06/29 06:52:10;;;;;;;3.50;2.10;;;23.90;99.90;;;;;;5053282;28;20186;-61
2022/06/29 06:54:35;;;;;;;4.07;2.17;;;24.10;99.90;;;;;;5050497;28;20178;-59
2022/06/29 06:57:01;;;;;;;6.10;2.23;;;24.40;99.90;;;;;;5042398;28;20349;-59
2022/06/29 06:59:27;;;;;;;3.27;2.30;;;24.50;99.90;;;;;;5051833;28;20198;-60
2022/06/29 07:01:52;;;;;;;4.90;2.60;;;24.60;99.90;;;;;;5043969;28;20186;-59
2022/06/29 07:04:18;;;;;;;3.20;2.30;;;24.70;99.90;;;;;;5046058;28;20612;-59
2022/06/29 07:06:43;;;;;;;3.10;2.23;;;24.80;99.90;;;;;;5046660;28;20218;-59
2022/06/29 07:09:09;;;;;;;10.60;2.50;;;24.80;99.90;;;;;;5041413;28;20198;-58
2022/06/29 07:11:35;;;;;;;2.70;2.13;;;24.90;99.90;;;;;;5053820;28;20209;-59
2022/06/29 07:14:01;;;;;;;2.73;1.80;;;25.00;99.90;;;;;;5050667;28;20444;-58
2022/06/29 07:16:26;;;;;;;2.40;2.20;;;25.30;99.90;;;;;;5033346;28;20298;-59
2022/06/29 07:18:53;;;;;;;4.07;2.33;;;25.20;99.90;;;;;;5034031;28;20270;-58
2022/06/29 07:21:19;;;;;;;3.73;2.27;;;25.20;99.90;;;;;;5033478;28;20183;-59
2022/06/29 07:23:44;;;;;;;4.57;2.33;;;24.90;99.90;;;;;;5033215;28;20873;-59
2022/06/29 07:26:10;;;;;;;4.40;2.50;;;24.70;99.90;;;;;;5042489;28;20197;-59
2022/06/29 07:28:36;;;;;;;3.50;2.40;;;24.60;99.90;;;;;;5048240;28;20632;-59
2022/06/29 07:31:02;;;;;;;2.20;2.00;;;24.50;99.90;;;;;;5040426;28;20945;-59
2022/06/29 07:33:28;;;;;;;3.50;2.23;;;24.40;99.90;;;;;;5048224;28;20472;-59
2022/06/29 07:35:53;;;;;;;2.60;2.40;;;24.40;99.90;;;;;;5052989;28;20210;-65
2022/06/29 07:38:19;;;;;;;3.60;2.50;;;24.60;99.90;;;;;;5052666;28;20186;-58
2022/06/29 07:40:45;;;;;;;4.10;2.10;;;24.70;99.90;;;;;;5053345;28;20669;-57
2022/06/29 07:43:10;;;;;;;4.00;2.20;;;24.80;99.90;;;;;;5040725;28;20191;-58
2022/06/29 07:45:36;;;;;;;2.93;2.40;;;24.90;99.90;;;;;;5037749;28;20843;-58
2022/06/29 07:48:02;;;;;;;2.50;2.30;;;25.00;99.90;;;;;;5049700;28;20194;-59
2022/06/29 07:50:27;;;;;;;4.60;2.60;;;25.30;99.90;;;;;;5052759;28;20213;-60
2022/06/29 07:52:53;;;;;;;2.20;2.00;;;25.60;99.90;;;;;;5049643;28;20196;-60
2022/06/29 07:55:19;;;;;;;6.10;2.40;;;26.10;99.90;;;;;;5032433;28;20333;-59
2022/06/29 07:57:44;;;;;;;4.10;2.17;;;26.40;99.90;;;;;;5045625;28;20201;-59
2022/06/29 08:00:10;;;;;;;3.47;2.27;;;26.60;99.90;;;;;;5050934;28;20221;-60
2022/06/29 08:02:36;;;;;;;5.50;2.20;;;26.60;99.90;;;;;;5048511;28;20265;-61
2022/06/29 08:05:02;;;;;;;3.10;2.37;;;26.50;99.90;;;;;;5049947;28;20963;-59
2022/06/29 08:07:28;;;;;;;2.67;2.27;;;26.60;99.90;;;;;;5050204;28;20529;-61
2022/06/29 08:09:53;;;;;;;5.73;2.57;;;26.90;99.90;;;;;;5031345;28;20465;-61
2022/06/29 08:12:20;;;;;;;2.43;2.23;;;26.90;99.90;;;;;;5031191;28;20229;-61
2022/06/29 08:14:46;;;;;;;4.00;2.30;;;27.10;99.90;;;;;;5032300;28;20198;-62
2022/06/29 08:17:12;;;;;;;2.70;2.47;;;27.40;99.90;;;;;;5031793;28;20461;-59
2022/06/29 08:19:37;;;;;;;2.97;2.13;;;27.80;99.90;;;;;;5036161;28;20190;-58
2022/06/29 08:22:03;;;;;;;2.73;2.50;;;28.10;99.90;;;;;;5047525;28;20512;-61
2022/06/29 08:24:29;;;;;;;2.67;2.20;;;28.40;99.90;;;;;;5054833;28;20677;-61
2022/06/29 08:26:54;;;;;;;3.33;2.10;;;28.70;99.90;;;;;;5044170;28;20555;-61
2022/06/29 08:29:20;;;;;;;4.90;2.30;;;29.00;99.90;;;;;;5034733;28;20179;-61
2022/06/29 08:31:46;;;;;;;4.50;2.40;;;29.10;99.90;;;;;;5043066;28;20240;-60
2022/06/29 08:34:14;;;;;;;3.23;2.60;;;29.10;99.90;;;;;;5038163;28;20199;-62
2022/06/29 08:36:39;;;;;;;2.63;2.40;;;29.30;99.90;;;;;;5035225;28;20467;-61
2022/06/29 08:39:05;;;;;;;2.87;2.20;;;29.60;99.90;;;;;;5034631;28;20492;-60
2022/06/29 08:41:32;;;;;;;4.37;2.30;;;29.80;99.90;;;;;;5035386;28;20199;-61
2022/06/29 08:44:03;;;;;;;2.73;2.27;;;29.80;99.90;;;;;;5047196;28;20217;-62
2022/06/29 08:46:28;;;;;;;2.67;2.30;;;29.80;99.90;;;;;;5051294;28;20444;-60
2022/06/29 08:48:54;;;;;;;2.53;2.33;;;30.00;99.90;;;;;;5034366;28;20437;-65
2022/06/29 08:51:22;;;;;;;2.20;2.00;;;30.00;99.90;;;;;;5035218;28;20772;-61
2022/06/29 08:53:49;;;;;;;2.40;2.20;;;29.90;99.90;;;;;;5034268;28;20198;-60
2022/06/29 08:56:17;;;;;;;2.70;2.50;;;29.90;99.90;;;;;;5036332;28;20565;-61
2022/06/29 08:58:44;;;;;;;2.70;2.17;;;30.10;99.90;;;;;;5050351;28;20890;-64
2022/06/29 09:01:09;;;;;;;14.07;3.10;;;30.30;99.90;;;;;;5043068;28;20806;-62
2022/06/29 09:03:36;;;;;;;3.23;2.30;;;30.60;99.90;;;;;;5037965;28;20448;-60
2022/06/29 09:06:03;;;;;;;3.53;2.20;;;30.70;99.90;;;;;;5044586;28;20249;-61
2022/06/29 09:08:31;;;;;;;3.23;2.50;;;30.50;99.90;;;;;;5038421;28;20432;-61
2022/06/29 09:10:57;;;;;;;4.83;2.33;;;30.70;99.90;;;;;;5046171;28;20433;-61
2022/06/29 09:13:24;;;;;;;2.97;2.40;;;30.60;99.90;;;;;;5054123;28;20401;-63
2022/06/29 09:15:59;;;;;;;2.63;2.13;;;30.00;99.90;;;;;;5054035;28;20622;-59
2022/06/29 09:18:30;;;;;;;3.00;2.70;;;29.70;99.90;;;;;;5053805;28;20800;-62
2022/06/29 09:21:02;;;;;;;3.47;2.47;;;29.80;99.90;;;;;;5053594;28;20535;-74
2022/06/29 09:23:28;;;;;;;2.50;2.30;;;30.20;99.90;;;;;;5053403;28;20405;-64
2022/06/29 09:25:54;;;;;;;2.47;2.23;;;30.70;99.90;;;;;;5053594;28;20432;-62
2022/06/29 09:28:25;;;;;;;2.30;2.10;;;30.90;99.90;;;;;;5053331;28;20862;-61
2022/06/29 09:30:53;;;;;;;2.87;2.03;;;31.10;99.90;;;;;;5053430;28;20421;-61
2022/06/29 09:33:32;;;;;;;4.13;2.43;;;31.50;99.90;;;;;;5053653;28;21276;-60
2022/06/29 09:36:04;;;;;;;2.90;2.50;;;31.90;99.90;;;;;;5050066;28;20465;-67
2022/06/29 09:38:30;;;;;;;3.30;2.30;;;32.40;99.90;;;;;;5041002;28;20762;-61
2022/06/29 09:41:02;;;;;;;4.90;2.13;;;32.40;99.90;;;;;;5044309;28;20456;-62
2022/06/29 09:43:29;;;;;;;9.20;3.20;;;32.00;99.90;;;;;;5041162;28;20183;-62
2022/06/29 09:45:55;;;;;;;4.77;2.90;;;31.50;99.90;;;;;;5050832;28;20432;-61
2022/06/29 09:48:24;;;;;;;2.27;2.13;;;31.60;99.90;;;;;;5041990;28;20444;-61
2022/06/29 09:50:52;;;;;;;2.70;2.50;;;32.00;99.90;;;;;;5041255;28;20199;-59
2022/06/29 09:53:21;;;;;;;3.90;2.30;;;32.00;99.90;;;;;;5042922;28;20441;-63
2022/06/29 09:55:48;;;;;;;3.73;2.60;;;32.10;99.90;;;;;;5060154;28;20487;-63
2022/06/29 09:58:18;;;;;;;17.63;2.90;;;32.20;99.90;;;;;;5064954;28;20428;-61
2022/06/29 10:03:31;;;;;;;2.60;2.40;;;32.10;99.90;;;;;;5045112;28;20443;-62
2022/06/29 10:06:08;;;;;;;3.27;2.20;;;32.50;99.90;;;;;;5048474;28;20440;-61
2022/06/29 10:08:35;;;;;;;2.20;2.10;;;32.70;99.90;;;;;;5046215;28;20444;-61
2022/06/29 10:14:03;;;;;;;2.60;2.40;;;32.80;99.90;;;;;;5039229;28;20863;-60
2022/06/29 10:16:45;;;;;;;2.47;2.27;;;32.60;99.90;;;;;;5048755;28;20464;-63
2022/06/29 10:19:54;;;;;;;3.23;2.30;;;32.00;99.90;;;;;;5044612;28;20555;-62
2022/06/29 10:22:20;;;;;;;2.87;2.37;;;31.90;99.90;;;;;;5045474;28;20448;-61
2022/06/29 10:25:03;;;;;;;3.57;2.30;;;32.20;99.90;;;;;;5040053;28;21124;-61
2022/06/29 10:27:29;;;;;;;4.17;2.50;;;32.60;99.90;;;;;;5050757;28;20236;-62
2022/06/29 10:30:28;;;;;;;2.57;2.47;;;33.00;99.90;;;;;;5052404;28;20393;-61
2022/06/29 10:33:28;;;;;;;2.63;2.43;;;32.90;99.90;;;;;;5030169;28;20221;-63
2022/06/29 10:36:08;;;;;;;2.50;2.30;;;33.10;99.90;;;;;;5034454;28;21127;-61
2022/06/29 10:38:55;;;;;;;3.50;2.23;;;33.50;99.90;;;;;;5032198;28;20501;-61
2022/06/29 10:44:06;;;;;;;5.00;2.30;;;32.20;99.90;;;;;;5052185;28;20435;-60
2022/06/29 10:46:58;;;;;;;2.93;2.23;;;32.10;99.90;;;;;;5045250;28;20804;-60
2022/06/29 10:49:24;;;;;;;2.53;2.33;;;32.30;99.90;;;;;;5028967;28;20441;-61
2022/06/29 10:51:51;;;;;;;2.17;2.03;;;31.70;99.90;;;;;;5032825;28;21289;-61
2022/06/29 10:54:23;;;;;;;4.90;2.40;;;31.90;99.90;;;;;;5032136;28;20467;-63
2022/06/29 10:56:50;;;;;;;2.37;2.17;;;32.50;99.90;;;;;;5032274;28;20576;-59
2022/06/29 10:59:32;;;;;;;3.37;2.53;;;32.70;99.90;;;;;;5031729;28;20418;-62
2022/06/29 11:02:13;;;;;;;2.67;2.30;;;32.80;99.90;;;;;;5032478;28;20845;-66
2022/06/29 11:04:39;;;;;;;2.97;2.70;;;32.60;99.90;;;;;;5031341;28;20437;-64
2022/06/29 11:12:49;;;;;;;2.90;2.70;;;32.30;99.90;;;;;;5031816;28;20930;-61
2022/06/29 11:15:41;;;;;;;3.00;2.70;;;31.70;99.90;;;;;;5032044;28;20463;-60
2022/06/29 11:18:08;;;;;;;3.60;2.77;;;31.50;99.90;;;;;;5036953;28;20910;-61
2022/06/29 11:20:34;;;;;;;2.50;2.30;;;32.10;99.90;;;;;;5045716;28;20938;-53
2022/06/29 11:23:00;;;;;;;2.70;2.50;;;32.50;99.90;;;;;;5039494;28;20598;-53
2022/06/29 11:25:34;;;;;;;2.77;2.37;;;32.80;99.90;;;;;;5051377;28;20523;-53
2022/06/29 11:27:59;;;;;;;4.33;2.60;;;32.90;99.90;;;;;;5045512;28;20225;-53
2022/06/29 11:30:25;;;;;;;3.50;2.73;;;32.80;99.90;;;;;;5032114;28;20488;-57
2022/06/29 11:32:51;;;;;;;3.80;2.60;;;32.90;99.90;;;;;;5031646;28;20735;-53
2022/06/29 11:35:22;;;;;;;2.60;2.40;;;33.30;99.90;;;;;;5030971;28;20190;-53
2022/06/29 11:37:51;;;;;;;4.00;2.10;;;33.20;99.90;;;;;;5042999;28;20236;-53
2022/06/29 11:40:34;;;;;;;2.93;2.43;;;33.10;99.90;;;;;;5040843;28;20438;-53
2022/06/29 11:43:12;;;;;;;2.10;2.00;;;33.00;99.90;;;;;;5044804;28;20445;-52
2022/06/29 11:45:45;;;;;;;2.10;2.00;;;33.10;99.90;;;;;;5045154;28;20441;-64
2022/06/29 11:48:21;;;;;;;3.23;2.10;;;33.80;99.90;;;;;;5043935;28;20447;-53
2022/06/29 11:50:54;;;;;;;2.60;2.40;;;34.30;99.90;;;;;;5042079;28;20439;-54
2022/06/29 11:53:53;;;;;;;2.73;1.83;;;34.80;99.90;;;;;;5041486;28;20198;-53
2022/06/29 11:56:22;;;;;;;3.40;2.10;;;35.00;99.90;;;;;;5046991;28;20491;-52
2022/06/29 11:58:50;;;;;;;1.90;1.80;;;34.90;99.90;;;;;;5047843;28;20465;-52
2022/06/29 12:01:24;;;;;;;1.80;1.70;;;34.30;99.90;;;;;;5045132;28;20789;-52
2022/06/29 12:03:52;;;;;;;2.37;2.20;;;33.70;99.90;;;;;;5047720;28;20524;-53
2022/06/29 12:06:21;;;;;;;2.37;1.80;;;33.40;99.90;;;;;;5037146;28;20445;-53
2022/06/29 12:08:47;;;;;;;2.03;1.90;;;33.30;99.90;;;;;;5036966;28;20452;-53
2022/06/29 12:11:13;;;;;;;1.97;1.83;;;33.50;99.90;;;;;;5057828;28;20440;-53
2022/06/29 12:13:39;;;;;;;2.47;2.27;;;33.70;99.90;;;;;;5038036;28;20444;-53
2022/06/29 12:16:05;;;;;;;3.33;2.00;;;34.00;99.90;;;;;;5030896;28;20472;-54
2022/06/29 12:18:31;;;;;;;2.10;1.90;;;34.30;99.90;;;;;;5031241;28;20296;-54
2022/06/29 12:20:57;;;;;;;7.40;2.90;;;34.50;99.90;;;;;;5039416;28;20273;-54
2022/06/29 12:23:23;;;;;;;7.37;2.83;;;34.20;99.90;;;;;;5038566;28;20445;-53
2022/06/29 12:25:49;;;;;;;2.17;1.93;;;34.20;99.90;;;;;;5049042;28;20440;-52
2022/06/29 12:28:14;;;;;;;2.80;2.00;;;34.30;99.90;;;;;;5041483;28;20444;-54
2022/06/29 12:30:40;;;;;;;1.80;1.70;;;34.60;99.90;;;;;;5042250;28;20190;-53
2022/06/29 12:33:09;;;;;;;2.50;1.70;;;34.80;99.90;;;;;;5036461;28;20206;-53
2022/06/29 12:35:35;;;;;;;5.90;3.07;;;34.80;99.90;;;;;;5034825;28;20206;-53
2022/06/29 12:38:01;;;;;;;67.80;15.40;;;34.90;99.90;;;;;;5039695;28;20490;-53
2022/06/29 12:40:29;;;;;;;3.00;2.30;;;35.30;99.90;;;;;;5042324;28;20461;-54
2022/06/29 12:42:54;;;;;;;3.13;2.17;;;35.10;99.90;;;;;;5050985;28;20173;-55
2022/06/29 12:45:20;;;;;;;2.60;2.00;;;34.50;99.90;;;;;;5049400;28;20460;-53
2022/06/29 12:47:46;;;;;;;1.97;1.87;;;34.30;99.90;;;;;;5037931;28;20188;-53
2022/06/29 12:50:13;;;;;;;2.50;2.30;;;34.50;99.90;;;;;;5058670;28;20420;-53
2022/06/29 12:52:42;;;;;;;2.43;2.23;;;34.60;99.90;;;;;;5040162;28;20515;-53
2022/06/29 12:55:11;;;;;;;2.73;2.00;;;34.30;99.90;;;;;;5049279;28;20473;-54
2022/06/29 12:57:36;;;;;;;2.07;1.90;;;34.50;99.90;;;;;;5039652;28;20448;-58
2022/06/29 13:00:03;;;;;;;2.10;2.00;;;33.90;99.90;;;;;;5050139;28;20433;-53
2022/06/29 13:02:30;;;;;;;2.00;1.90;;;33.70;99.90;;;;;;5048138;28;20191;-53
2022/06/29 13:04:56;;;;;;;2.00;1.90;;;33.80;99.90;;;;;;5051038;28;20444;-52
2022/06/29 13:07:26;;;;;;;2.20;1.93;;;33.90;99.90;;;;;;5052516;28;20444;-53
2022/06/29 13:09:52;;;;;;;2.97;2.03;;;33.90;99.90;;;;;;5043786;28;20237;-54